• Join FlightAware (Why Join?)
  • Login
  • US Flag 
07:36AM EDT


 

Airport Tracker/Info


-or-


 

Live Flight TrackerFlight Track Log ✈ SKW6228 ✈ 03-May-2013 ✈ KBIS - KDEN

Flight Track Log - Related Links

Times and Time Zones

All times are in EDT time to prevent confusion due to time zone crossing. See the SKW6228 flight status page for this flight to view local times or setup timezone preferences in your user account.

Time Position Orientation Groundspeed Altitude Reporting Facility
EDT Latitude Longitude Course Direction KTS MPH feet Rate Location/Type
07:46AM 46.4225 -100.9357 204° Southwest  Level FlightAware Approximate
07:46AM 46.6133 -100.7978 202° Southwest 265 305 7,600  Level Minneapolis Center
07:47AM 46.3069 -101.0018 201° Southwest  Level FlightAware Approximate
07:47AM 46.5453 -100.8389 203° Southwest 285 328 10,000  Level Minneapolis Center
07:48AM 46.1902 -101.0633 199° South  Level FlightAware Approximate
07:48AM 46.4667 -100.8858 202° Southwest 299 344 11,900  Level Minneapolis Center
07:49AM 46.0737 -101.1258 203° Southwest  Level FlightAware Approximate
07:49AM 46.3772 -100.9378 202° Southwest 333 383 13,800  Level Minneapolis Center
07:50AM 45.9590 -101.1946 203° Southwest  Level FlightAware Approximate
07:50AM 46.2858 -100.9914 202° Southwest 350 403 15,800  Level Minneapolis Center
07:51AM 45.8439 -101.2620 202° Southwest  Level FlightAware Approximate
07:51AM 46.1917 -101.0472 202° Southwest 361 415 17,900  Level Minneapolis Center
07:52AM 46.0753 -101.1153 202° Southwest 372 428 19,600 1,500 Climbing Minneapolis Center
07:53AM 45.9733 -101.1733 202° Southwest 386 444 21,000 1,380 Climbing Minneapolis Center
07:54AM 45.8714 -101.2308 201° Southwest 393 452 22,500 1,320 Climbing Minneapolis Center
07:55AM 45.7658 -101.2911 202° Southwest 401 461 23,700 1,080 Climbing Minneapolis Center
07:56AM 45.6569 -101.3553 202° Southwest 414 476 24,800 780 Climbing Minneapolis Center
07:57AM 45.5453 -101.4186 202° Southwest 425 489 25,400 720 Climbing Minneapolis Center
07:58AM 45.4294 -101.4850 202° Southwest 440 506 26,300 780 Climbing Minneapolis Center
07:59AM 45.3111 -101.5503 201° Southwest 451 519 27,100 780 Climbing Minneapolis Center
08:00AM 45.1914 -101.6172 202° Southwest 460 529 27,900 780 Climbing Minneapolis Center
08:01AM 45.0708 -101.6856 202° Southwest 465 535 28,700 720 Climbing Minneapolis Center
08:02AM 44.9489 -101.7542 202° Southwest 470 541 29,400 780 Climbing Minneapolis Center
08:03AM 44.8022 -101.8339 201° Southwest 471 542 30,400 780 Climbing Minneapolis Center
08:04AM 44.6819 -101.9011 202° Southwest 469 540 31,100 600 Climbing Minneapolis Center
08:05AM 44.5608 -101.9667 201° Southwest 467 537 31,800 420 Climbing Denver Center
08:06AM 44.4403 -102.0347 202° Southwest 468 539 32,000 60 Climbing Denver Center
08:07AM 44.3183 -102.1100 204° Southwest 475 547 32,000  Level Denver Center
08:08AM 44.1919 -102.1825 202° Southwest 486 559 32,000  Level Denver Center
08:09AM 44.0642 -102.2553 202° Southwest 493 567 32,000  Level Denver Center
08:10AM 43.9383 -102.3289 203° Southwest 493 567 32,000  Level Denver Center
08:11AM 43.7914 -102.4167 203° Southwest 487 560 32,000  Level Denver Center
08:12AM 43.6703 -102.4875 203° Southwest 491 565 32,000  Level Denver Center
08:13AM 43.5492 -102.5550 202° Southwest 491 565 32,000  Level Denver Center
08:14AM 43.4086 -102.6364 203° Southwest 490 564 32,000  Level Denver Center
08:15AM 43.2883 -102.7044 202° Southwest 488 562 32,000  Level Denver Center
08:16AM 43.1675 -102.7736 203° Southwest 490 564 32,000  Level Denver Center
08:17AM 43.0469 -102.8425 203° Southwest 491 565 32,000  Level Denver Center
08:18AM 42.9078 -102.9219 203° Southwest 485 558 32,000  Level Denver Center
08:19AM 42.7864 -102.9889 202° Southwest 489 563 32,000  Level Denver Center
08:20AM 42.6653 -103.0569 202° Southwest 489 563 32,000  Level Denver Center
08:21AM 42.5239 -103.1353 202° Southwest 488 562 32,000  Level Denver Center
08:22AM 42.4025 -103.2025 202° Southwest 491 565 32,000  Level Denver Center
08:24AM 42.2297 -103.2417 190° South 493 567 32,000  Level Denver Center
08:25AM 42.0992 -103.2697 189° South 494 568 32,000  Level Denver Center
08:26AM 41.9686 -103.2972 189° South 495 570 32,000  Level Denver Center
08:27AM 41.8164 -103.3281 189° South 494 568 32,000  Level Denver Center
08:28AM 41.6856 -103.3544 189° South 494 568 32,000  Level Denver Center
08:29AM 41.5553 -103.3808 189° South 495 570 32,000  Level Denver Center
08:30AM 41.4028 -103.4111 188° South 495 570 32,000  Level Denver Center
08:31AM 41.2722 -103.4383 189° South 494 568 32,000  Level Denver Center
08:32AM 41.1431 -103.4650 189° South 492 566 32,000 -360 Level Denver Center
08:33AM 41.0103 -103.4903 188° South 499 574 31,300 -1,140 Descending Denver Center
08:34AM 40.8728 -103.5344 194° South 499 574 29,800 -1,980 Descending Denver Center
08:35AM 40.7472 -103.5972 201° Southwest 480 552 27,300 -2,460 Descending Denver Center
08:36AM 40.6286 -103.6567 201° Southwest 457 526 24,800 -2,340 Descending Denver Center
08:37AM 40.5392 -103.7547 220° Southwest 419 482 22,600 -2,280 Descending Denver Center
08:38AM 40.4522 -103.8717 226° Southwest 394 453 20,200 -2,100 Descending Denver Center
08:39AM 40.3842 -103.9694 228° Southwest 364 419 18,400 -1,680 Descending Denver Center
08:40AM 40.3575 -104.0753 252° West 315 362 16,900 -1,680 Descending Denver Center
08:41AM 40.3556 -104.1817 269° West 294 338 15,100 -1,440 Descending Denver Center
08:42AM 40.3544 -104.2853 269° West 285 328 14,000 -600 Descending Denver Center
08:43AM 40.3528 -104.3761 269° West 256 295 14,000 -660 Level Denver Center
08:44AM 40.3514 -104.4739 269° West 250 288 12,700 -1,200 Descending Denver Center
08:45AM 40.2931 -104.5303 216° Southwest 275 316 11,600 -1,140 Descending Denver Center
08:46AM 40.2261 -104.5719 205° Southwest 269 310 10,500 -840 Descending Denver Center
08:47AM 40.1636 -104.6114 206° Southwest 251 289 10,000 -360 Descending Denver Center
08:48AM 40.1092 -104.6425 204° Southwest 219 252 9,800 -240 Descending Denver Center